Time;durP1;ratioP1;P1;durP2;ratioP2;P2;SDS_P1;SDS_P2;PMS_P1;PMS_P2;Temp;Humidity;BMP_temperature;BMP_pressure;BME280_temperature;BME280_humidity;BME280_pressure;Samples;Min_cycle;Max_cycle;Signal;HPM_P1;HPM_P2
2023/08/26 00:00:41;;;;;;;13.80;6.00;;;;;;;;;;4971654;28;20027;-95
2023/08/26 00:03:07;;;;;;;15.20;6.97;;;;;;;;;;4993094;28;20038;-94
2023/08/26 00:05:33;;;;;;;11.07;7.00;;;;;;;;;;5004509;28;20139;-94
2023/08/26 00:07:59;;;;;;;11.77;6.65;;;;;;;;;;5047501;28;20421;-94
2023/08/26 00:10:25;;;;;;;18.60;7.43;;;;;;;;;;5045864;28;20055;-95
2023/08/26 00:12:52;;;;;;;11.25;7.22;;;;;;;;;;5054832;28;20032;-95
2023/08/26 00:15:18;;;;;;;13.77;6.85;;;;;;;;;;5055028;28;20024;-95
2023/08/26 00:17:44;;;;;;;12.55;7.50;;;;;;;;;;5050054;28;20016;-95
2023/08/26 00:20:10;;;;;;;13.23;7.57;;;;;;;;;;5049643;28;20023;-96
2023/08/26 00:22:37;;;;;;;10.20;6.65;;;;;;;;;;5053765;28;20013;-93
2023/08/26 00:25:03;;;;;;;16.27;7.82;;;;;;;;;;5050734;28;20450;-94
2023/08/26 00:27:29;;;;;;;9.68;6.93;;;;;;;;;;5053089;28;20115;-95
2023/08/26 00:29:55;;;;;;;17.13;7.97;;;;;;;;;;5071124;28;20028;-96
2023/08/26 00:32:21;;;;;;;16.08;8.15;;;;;;;;;;5052255;28;20457;-96
2023/08/26 00:34:47;;;;;;;13.50;8.07;;;;;;;;;;5047364;28;20036;-96
2023/08/26 00:37:14;;;;;;;11.50;6.93;;;;;;;;;;5052525;28;20025;-95
2023/08/26 00:39:42;;;;;;;12.95;6.85;;;;;;;;;;5050549;28;20024;-96
2023/08/26 00:42:09;;;;;;;15.95;7.50;;;;;;;;;;5047873;28;20027;-95
2023/08/26 00:44:35;;;;;;;13.25;8.15;;;;;;;;;;5050914;28;20029;-94
2023/08/26 00:47:03;;;;;;;13.65;7.13;;;;;;;;;;5049548;28;20032;-96
2023/08/26 00:49:29;;;;;;;11.45;7.10;;;;;;;;;;5055553;28;20116;-96
2023/08/26 00:51:56;;;;;;;11.77;6.97;;;;;;;;;;5049168;28;20029;-96
2023/08/26 00:54:22;;;;;;;13.95;7.25;;;;;;;;;;5049024;28;20029;-94
2023/08/26 00:56:51;;;;;;;13.98;7.22;;;;;;;;;;5066605;28;20028;-96
2023/08/26 00:59:18;;;;;;;11.33;7.27;;;;;;;;;;5049834;28;20052;-95
2023/08/26 01:01:44;;;;;;;13.40;7.22;;;;;;;;;;5071325;28;20025;-95
2023/08/26 01:04:11;;;;;;;11.20;7.10;;;;;;;;;;5048769;28;20033;-94
2023/08/26 01:06:37;;;;;;;13.38;6.13;;;;;;;;;;5054040;28;20028;-95
2023/08/26 01:09:03;;;;;;;16.55;6.32;;;;;;;;;;5042673;28;20511;-95
2023/08/26 01:11:36;;;;;;;14.93;7.03;;;;;;;;;;5049097;28;20082;-96
2023/08/26 01:14:07;;;;;;;14.80;6.78;;;;;;;;;;5049079;28;20029;-95
2023/08/26 01:16:34;;;;;;;10.80;6.38;;;;;;;;;;5052329;28;20025;-96
2023/08/26 01:19:02;;;;;;;11.95;6.90;;;;;;;;;;5049770;28;20027;-95
2023/08/26 01:21:32;;;;;;;14.43;7.25;;;;;;;;;;5048472;28;20075;-94
2023/08/26 01:23:58;;;;;;;12.57;6.85;;;;;;;;;;5051262;28;20040;-95
2023/08/26 01:26:24;;;;;;;17.55;7.05;;;;;;;;;;5066111;28;20100;-94
2023/08/26 01:28:50;;;;;;;10.05;6.85;;;;;;;;;;5055591;28;20020;-95
2023/08/26 01:31:17;;;;;;;11.30;6.93;;;;;;;;;;5057452;28;20059;-95
2023/08/26 01:33:50;;;;;;;15.48;7.15;;;;;;;;;;5050734;28;20028;-94
2023/08/26 01:36:18;;;;;;;10.00;6.35;;;;;;;;;;5063349;28;20029;-95
2023/08/26 01:38:45;;;;;;;12.55;6.72;;;;;;;;;;5057299;28;20017;-91
2023/08/26 01:41:14;;;;;;;18.25;7.32;;;;;;;;;;5060500;28;20059;-95
2023/08/26 01:43:40;;;;;;;14.07;7.63;;;;;;;;;;5055719;28;20021;-96
2023/08/26 01:46:06;;;;;;;14.20;6.97;;;;;;;;;;5053229;28;20044;-96
2023/08/26 01:48:32;;;;;;;10.13;6.18;;;;;;;;;;5046558;28;20036;-92
2023/08/26 01:50:58;;;;;;;11.45;6.75;;;;;;;;;;5048330;28;20025;-91
2023/08/26 01:53:24;;;;;;;11.95;6.95;;;;;;;;;;5045235;28;20036;-88
2023/08/26 01:55:50;;;;;;;13.68;6.53;;;;;;;;;;5049307;28;20510;-91
2023/08/26 01:58:16;;;;;;;13.30;5.80;;;;;;;;;;5042267;28;20024;-89
2023/08/26 02:00:42;;;;;;;11.15;6.43;;;;;;;;;;5047352;28;20072;-91
2023/08/26 02:03:08;;;;;;;14.02;7.07;;;;;;;;;;5052702;28;20029;-92
2023/08/26 02:05:34;;;;;;;10.80;6.03;;;;;;;;;;5044662;28;20029;-92
2023/08/26 02:08:00;;;;;;;10.68;6.60;;;;;;;;;;5046928;28;20469;-92
2023/08/26 02:10:26;;;;;;;10.00;5.90;;;;;;;;;;5046442;28;20029;-91
2023/08/26 02:12:52;;;;;;;9.40;5.72;;;;;;;;;;5051936;28;20119;-92
2023/08/26 02:15:18;;;;;;;12.52;6.47;;;;;;;;;;5045631;28;20116;-91
2023/08/26 02:17:45;;;;;;;9.55;6.72;;;;;;;;;;5052348;28;20021;-91
2023/08/26 02:20:11;;;;;;;13.27;6.75;;;;;;;;;;5063346;28;20559;-91
2023/08/26 02:22:37;;;;;;;12.30;6.95;;;;;;;;;;5046528;28;20017;-89
2023/08/26 02:25:03;;;;;;;13.02;6.35;;;;;;;;;;5053486;28;20020;-91
2023/08/26 02:27:29;;;;;;;9.55;6.47;;;;;;;;;;5047930;28;20174;-91
2023/08/26 02:29:55;;;;;;;13.68;6.43;;;;;;;;;;5050461;28;20401;-93
2023/08/26 02:32:21;;;;;;;12.02;5.78;;;;;;;;;;5046043;28;20025;-91
2023/08/26 02:34:47;;;;;;;10.23;6.47;;;;;;;;;;5056951;28;20044;-92
2023/08/26 02:37:13;;;;;;;11.57;5.63;;;;;;;;;;5048761;28;20517;-91
2023/08/26 02:39:39;;;;;;;11.35;6.20;;;;;;;;;;5052954;28;20027;-93
2023/08/26 02:42:05;;;;;;;11.38;6.22;;;;;;;;;;5053011;28;20422;-92
2023/08/26 02:44:31;;;;;;;10.15;5.28;;;;;;;;;;5050912;28;20017;-91
2023/08/26 02:46:57;;;;;;;13.50;5.30;;;;;;;;;;5057724;28;20500;-93
2023/08/26 02:49:23;;;;;;;9.75;5.72;;;;;;;;;;5055761;28;20032;-92
2023/08/26 02:51:49;;;;;;;8.63;5.50;;;;;;;;;;5056187;28;20092;-91
2023/08/26 02:54:15;;;;;;;9.35;5.82;;;;;;;;;;5068586;28;20036;-91
2023/08/26 02:56:41;;;;;;;10.07;5.00;;;;;;;;;;5052052;28;20035;-91
2023/08/26 02:59:07;;;;;;;7.15;4.55;;;;;;;;;;5057298;28;20083;-92
2023/08/26 03:01:33;;;;;;;14.40;4.57;;;;;;;;;;5049112;28;20103;-91
2023/08/26 03:03:59;;;;;;;7.93;4.90;;;;;;;;;;5046669;28;20024;-92
2023/08/26 03:06:25;;;;;;;8.70;4.82;;;;;;;;;;5049951;28;20021;-92
2023/08/26 03:08:51;;;;;;;8.57;5.25;;;;;;;;;;5055410;28;20040;-92
2023/08/26 03:11:17;;;;;;;8.90;5.00;;;;;;;;;;5054725;28;20025;-92
2023/08/26 03:13:43;;;;;;;9.38;5.43;;;;;;;;;;5070377;28;20029;-90
2023/08/26 03:16:10;;;;;;;8.32;5.38;;;;;;;;;;5064036;28;20025;-92
2023/08/26 03:18:36;;;;;;;8.35;4.82;;;;;;;;;;5050570;28;20030;-93
2023/08/26 03:21:06;;;;;;;13.52;5.13;;;;;;;;;;5052988;28;20024;-91
2023/08/26 03:23:32;;;;;;;9.52;5.05;;;;;;;;;;5067875;28;20024;-90
2023/08/26 03:25:58;;;;;;;10.82;5.43;;;;;;;;;;5055556;28;20024;-92
2023/08/26 03:28:25;;;;;;;7.90;5.13;;;;;;;;;;5044619;28;20050;-92
2023/08/26 03:30:51;;;;;;;12.43;5.18;;;;;;;;;;5050931;28;20021;-91
2023/08/26 03:33:16;;;;;;;7.30;4.25;;;;;;;;;;5048876;28;20055;-91
2023/08/26 03:35:42;;;;;;;8.27;5.28;;;;;;;;;;5051813;28;20024;-92
2023/08/26 03:38:09;;;;;;;6.10;4.38;;;;;;;;;;5052323;28;20095;-93
2023/08/26 03:40:39;;;;;;;16.05;5.05;;;;;;;;;;5066266;28;20051;-91
2023/08/26 03:43:05;;;;;;;;;;;;;;;;;;5068734;28;20013;-92
2023/08/26 03:45:31;;;;;;;7.30;4.50;;;;;;;;;;5047415;28;19905;-90
2023/08/26 03:47:57;;;;;;;15.10;5.07;;;;;;;;;;5045347;28;20024;-91
2023/08/26 03:50:23;;;;;;;12.90;5.20;;;;;;;;;;5048658;28;20036;-91
2023/08/26 03:52:49;;;;;;;8.20;4.50;;;;;;;;;;5044970;28;20465;-91
2023/08/26 03:55:15;;;;;;;10.50;4.68;;;;;;;;;;5047387;28;20052;-91
2023/08/26 03:57:53;;;;;;;9.38;5.35;;;;;;;;;;5057087;28;20119;-91
2023/08/26 04:00:19;;;;;;;8.40;4.93;;;;;;;;;;5050157;28;20036;-93
2023/08/26 04:02:45;;;;;;;9.52;5.53;;;;;;;;;;5054645;28;20551;-94
2023/08/26 04:05:13;;;;;;;6.13;4.35;;;;;;;;;;5050501;28;20042;-92
2023/08/26 04:07:39;;;;;;;9.23;4.68;;;;;;;;;;5065638;28;20088;-94
2023/08/26 04:10:06;;;;;;;8.45;4.75;;;;;;;;;;5053237;28;20381;-92
2023/08/26 04:12:32;;;;;;;9.18;5.03;;;;;;;;;;5049471;28;20028;-91
2023/08/26 04:14:58;;;;;;;7.35;5.07;;;;;;;;;;5049176;28;20025;-93
2023/08/26 04:17:24;;;;;;;8.75;5.35;;;;;;;;;;5070457;28;20020;-92
2023/08/26 04:19:50;;;;;;;7.97;5.00;;;;;;;;;;5048796;28;20020;-93
2023/08/26 04:22:16;;;;;;;7.30;4.78;;;;;;;;;;5048864;28;20028;-92
2023/08/26 04:24:42;;;;;;;7.85;4.45;;;;;;;;;;5050060;28;20082;-90
2023/08/26 04:27:08;;;;;;;10.25;4.90;;;;;;;;;;5051266;28;20021;-91
2023/08/26 04:29:34;;;;;;;6.40;4.38;;;;;;;;;;5057814;28;20016;-92
2023/08/26 04:32:00;;;;;;;8.63;5.00;;;;;;;;;;5053994;28;20366;-92
2023/08/26 04:34:26;;;;;;;7.50;4.70;;;;;;;;;;5051007;28;20071;-92
2023/08/26 04:36:52;;;;;;;8.00;5.15;;;;;;;;;;5046091;28;20488;-90
2023/08/26 04:39:20;;;;;;;15.15;5.72;;;;;;;;;;5048855;28;20029;-91
2023/08/26 04:41:49;;;;;;;8.63;4.97;;;;;;;;;;5054730;28;20017;-91
2023/08/26 04:44:17;;;;;;;9.13;5.45;;;;;;;;;;5046990;28;20029;-92
2023/08/26 04:46:43;;;;;;;7.28;4.78;;;;;;;;;;5070215;28;20454;-92
2023/08/26 04:49:09;;;;;;;11.23;4.97;;;;;;;;;;5052731;28;20483;-91
2023/08/26 04:51:35;;;;;;;7.18;4.82;;;;;;;;;;5055753;28;20115;-91
2023/08/26 04:54:01;;;;;;;8.60;4.82;;;;;;;;;;5067964;28;20031;-92
2023/08/26 04:56:27;;;;;;;8.13;5.10;;;;;;;;;;5054610;28;20032;-91
2023/08/26 04:58:53;;;;;;;8.60;5.10;;;;;;;;;;5046424;28;20025;-92
2023/08/26 05:01:20;;;;;;;10.63;5.03;;;;;;;;;;5046662;28;20182;-92
2023/08/26 05:03:46;;;;;;;14.48;4.93;;;;;;;;;;5055315;28;20056;-93
2023/08/26 05:06:12;;;;;;;6.80;4.80;;;;;;;;;;5052687;28;20032;-90
2023/08/26 05:08:38;;;;;;;12.68;5.10;;;;;;;;;;5048000;28;20029;-92
2023/08/26 05:11:06;;;;;;;9.80;4.68;;;;;;;;;;5053464;28;20048;-91
2023/08/26 05:13:32;;;;;;;8.38;4.70;;;;;;;;;;5052048;28;20079;-90
2023/08/26 05:15:58;;;;;;;7.80;4.53;;;;;;;;;;5042833;28;20773;-92
2023/08/26 05:18:24;;;;;;;6.13;4.22;;;;;;;;;;5046671;28;20021;-90
2023/08/26 05:20:49;;;;;;;9.00;4.00;;;;;;;;;;5053709;28;20480;-92
2023/08/26 05:23:15;;;;;;;6.57;4.05;;;;;;;;;;5055406;28;20088;-93
2023/08/26 05:25:45;;;;;;;9.55;3.80;;;;;;;;;;5050260;28;20098;-93
2023/08/26 05:28:11;;;;;;;6.07;3.92;;;;;;;;;;5066614;28;20028;-91
2023/08/26 05:30:37;;;;;;;5.18;4.30;;;;;;;;;;5051362;28;20063;-92
2023/08/26 05:33:03;;;;;;;7.40;4.28;;;;;;;;;;5047783;28;20035;-93
2023/08/26 05:35:29;;;;;;;6.63;4.22;;;;;;;;;;5045935;28;20400;-91
2023/08/26 05:37:55;;;;;;;8.13;4.40;;;;;;;;;;5051415;28;20111;-93
2023/08/26 05:40:26;;;;;;;7.25;4.95;;;;;;;;;;5045892;28;20037;-92
2023/08/26 05:42:53;;;;;;;10.48;4.47;;;;;;;;;;5049511;28;20032;-91
2023/08/26 05:45:19;;;;;;;10.48;4.65;;;;;;;;;;5049159;28;20428;-91
2023/08/26 05:47:45;;;;;;;7.03;4.30;;;;;;;;;;5045291;28;20036;-91
2023/08/26 05:50:11;;;;;;;7.40;4.00;;;;;;;;;;5057738;28;20029;-92
2023/08/26 05:52:37;;;;;;;6.20;4.40;;;;;;;;;;5060283;28;20481;-94
2023/08/26 05:55:03;;;;;;;9.73;4.38;;;;;;;;;;5043810;28;20056;-91
2023/08/26 05:57:29;;;;;;;10.75;4.57;;;;;;;;;;5054314;28;20378;-91
2023/08/26 05:59:55;;;;;;;6.03;3.75;;;;;;;;;;5048886;28;20071;-91
2023/08/26 06:02:21;;;;;;;5.60;3.75;;;;;;;;;;5044899;28;20484;-93
2023/08/26 06:04:48;;;;;;;5.40;4.03;;;;;;;;;;5062318;28;20040;-92
2023/08/26 06:07:14;;;;;;;7.93;3.92;;;;;;;;;;5064645;28;20017;-92
2023/08/26 06:09:40;;;;;;;3.85;3.28;;;;;;;;;;5053891;28;20362;-92
2023/08/26 06:12:06;;;;;;;7.82;4.05;;;;;;;;;;5049661;28;20021;-94
2023/08/26 06:14:32;;;;;;;9.93;3.42;;;;;;;;;;5058962;28;20024;-94
2023/08/26 06:16:58;;;;;;;6.38;3.95;;;;;;;;;;5069952;28;20027;-93
2023/08/26 06:19:24;;;;;;;6.75;4.35;;;;;;;;;;5052541;28;20056;-93
2023/08/26 06:21:51;;;;;;;5.22;3.65;;;;;;;;;;5047390;28;20020;-94
2023/08/26 06:24:16;;;;;;;8.45;4.47;;;;;;;;;;5068975;28;20104;-94
2023/08/26 06:26:44;;;;;;;4.82;3.50;;;;;;;;;;5053091;28;20044;-94
2023/08/26 06:29:13;;;;;;;7.38;3.28;;;;;;;;;;5052439;28;20075;-93
2023/08/26 06:31:39;;;;;;;17.80;4.80;;;;;;;;;;5049087;28;20025;-91
2023/08/26 06:34:05;;;;;;;6.38;3.67;;;;;;;;;;5055616;28;20129;-94
2023/08/26 06:36:31;;;;;;;6.40;3.83;;;;;;;;;;5050945;28;20021;-95
2023/08/26 06:38:57;;;;;;;8.85;4.13;;;;;;;;;;5056105;28;20017;-94
2023/08/26 06:41:23;;;;;;;11.52;4.13;;;;;;;;;;5071862;28;20024;-95
2023/08/26 06:43:49;;;;;;;6.63;3.95;;;;;;;;;;5050627;28;20067;-94
2023/08/26 06:46:15;;;;;;;8.13;3.97;;;;;;;;;;5062623;28;20032;-93
2023/08/26 06:48:47;;;;;;;9.75;3.83;;;;;;;;;;5055501;28;20040;-92
2023/08/26 06:51:13;;;;;;;6.72;4.20;;;;;;;;;;5061162;28;20085;-93
2023/08/26 06:53:39;;;;;;;4.95;3.65;;;;;;;;;;5053452;28;20032;-93
2023/08/26 06:56:05;;;;;;;6.60;4.35;;;;;;;;;;5063033;28;20024;-96
2023/08/26 06:58:31;;;;;;;10.07;3.60;;;;;;;;;;5057557;28;20385;-94
2023/08/26 07:00:58;;;;;;;5.22;3.92;;;;;;;;;;5057705;28;20115;-93
2023/08/26 07:03:24;;;;;;;4.95;4.13;;;;;;;;;;5058219;28;20095;-95
2023/08/26 07:05:50;;;;;;;4.35;3.17;;;;;;;;;;5054258;28;20049;-95
2023/08/26 07:08:17;;;;;;;6.57;3.17;;;;;;;;;;5061586;28;20028;-96
2023/08/26 07:10:46;;;;;;;6.22;3.65;;;;;;;;;;5054355;28;20527;-92
2023/08/26 07:13:13;;;;;;;8.90;3.40;;;;;;;;;;5053169;28;20424;-95
2023/08/26 07:15:41;;;;;;;6.80;3.47;;;;;;;;;;5057813;28;20052;-95
2023/08/26 07:18:07;;;;;;;9.35;3.28;;;;;;;;;;5048024;28;20028;-94
2023/08/26 07:20:33;;;;;;;5.60;2.72;;;;;;;;;;5060503;28;20020;-94
2023/08/26 07:23:24;;;;;;;8.48;3.05;;;;;;;;;;5049693;28;20032;-96
2023/08/26 07:26:02;;;;;;;8.57;2.38;;;;;;;;;;5074333;28;20431;-95
2023/08/26 07:28:28;;;;;;;6.50;2.53;;;;;;;;;;5080921;28;20016;-95
2023/08/26 07:30:57;;;;;;;7.00;2.90;;;;;;;;;;5076510;28;20017;-94
2023/08/26 07:33:32;;;;;;;7.53;3.00;;;;;;;;;;5062102;28;20024;-96
2023/08/26 07:36:24;;;;;;;6.13;2.70;;;;;;;;;;5059147;28;20027;-94
2023/08/26 07:38:51;;;;;;;5.63;2.95;;;;;;;;;;5047170;28;20028;-94
2023/08/26 07:41:18;;;;;;;5.93;2.78;;;;;;;;;;5049369;28;20036;-94
2023/08/26 07:43:56;;;;;;;5.07;2.58;;;;;;;;;;5048152;28;20030;-96
2023/08/26 07:46:22;;;;;;;8.15;3.60;;;;;;;;;;5039393;28;20057;-95
2023/08/26 07:52:13;;;;;;;13.63;2.90;;;;;;;;;;5046986;28;20060;-96
2023/08/26 07:54:51;;;;;;;;;;;;;;;;;;;;;
2023/08/26 07:57:45;;;;;;;8.03;3.07;;;;;;;;;;5067592;28;20088;-96
2023/08/26 08:00:12;;;;;;;8.60;2.80;;;;;;;;;;5004606;28;20597;-94
2023/08/26 08:02:56;;;;;;;9.43;2.97;;;;;;;;;;5000081;28;20038;-96
2023/08/26 08:11:31;;;;;;;7.07;2.72;;;;;;;;;;4978801;28;20132;-93
2023/08/26 08:36:05;;;;;;;5.07;2.53;;;;;;;;;;4941205;29;20048;-96
2023/08/26 08:38:58;;;;;;;8.18;2.75;;;;;;;;;;4941170;29;20416;-95
2023/08/26 08:47:37;;;;;;;6.30;3.05;;;;;;;;;;4975939;28;20479;-96
2023/08/26 08:50:03;;;;;;;6.15;2.80;;;;;;;;;;4967651;28;20090;-95
2023/08/26 08:52:29;;;;;;;11.05;3.65;;;;;;;;;;4963881;28;20027;-94
2023/08/26 08:54:55;;;;;;;11.90;3.13;;;;;;;;;;4970132;28;20034;-94
2023/08/26 08:57:23;;;;;;;8.10;3.22;;;;;;;;;;4975904;28;20030;-94
2023/08/26 09:12:41;;;;;;;7.97;3.17;;;;;;;;;;5016329;28;20037;-94
2023/08/26 09:40:40;;;;;;;11.68;2.63;;;;;;;;;;4882400;29;20053;-95
2023/08/26 09:46:27;;;;;;;9.32;3.17;;;;;;;;;;4868759;29;20034;-94
2023/08/26 11:16:42;;;;;;;7.25;3.55;;;;;;;;;;4942840;28;20047;-96
2023/08/26 11:41:23;;;;;;;8.50;2.80;;;;;;;;;;4971062;28;20399;-95
2023/08/26 11:50:56;;;;;;;;;;;;;;;;;;;;;
2023/08/26 11:59:47;;;;;;;6.97;2.88;;;;;;;;;;5029954;28;20042;-95
2023/08/26 12:02:29;;;;;;;5.30;3.35;;;;;;;;;;5028173;28;20116;-95
2023/08/26 12:11:20;;;;;;;6.82;3.15;;;;;;;;;;5022313;28;20059;-96
2023/08/26 12:13:53;;;;;;;6.40;2.85;;;;;;;;;;5016794;28;20152;-96
2023/08/26 12:19:22;;;;;;;5.35;3.10;;;;;;;;;;4971398;28;20033;-95
2023/08/26 12:25:08;;;;;;;13.93;3.97;;;;;;;;;;4976441;28;20402;-88
2023/08/26 12:27:41;;;;;;;18.52;5.03;;;;;;;;;;5034865;28;20116;-86
2023/08/26 12:30:07;;;;;;;13.57;4.47;;;;;;;;;;5045407;28;20060;-86
2023/08/26 12:32:40;;;;;;;14.32;4.53;;;;;;;;;;5078100;27;20402;-87
2023/08/26 12:35:06;;;;;;;10.32;4.38;;;;;;;;;;5066706;28;20617;-86
2023/08/26 12:37:32;;;;;;;10.13;3.65;;;;;;;;;;5061666;28;20472;-87
2023/08/26 12:39:59;;;;;;;11.07;4.55;;;;;;;;;;5059669;28;20116;-87
2023/08/26 12:42:25;;;;;;;10.25;4.05;;;;;;;;;;5061353;28;20028;-87
2023/08/26 12:44:51;;;;;;;8.52;3.65;;;;;;;;;;5057996;28;20021;-86
2023/08/26 12:47:17;;;;;;;17.10;3.88;;;;;;;;;;5061059;28;20488;-87
2023/08/26 12:49:43;;;;;;;10.13;4.82;;;;;;;;;;5059777;28;20056;-86
2023/08/26 12:52:09;;;;;;;9.50;4.00;;;;;;;;;;5064575;28;20041;-88
2023/08/26 12:54:35;;;;;;;12.07;3.97;;;;;;;;;;5060064;28;20024;-87
2023/08/26 12:57:01;;;;;;;10.27;4.03;;;;;;;;;;5068963;28;20018;-89
2023/08/26 12:59:27;;;;;;;8.88;3.88;;;;;;;;;;5063151;28;20104;-89
2023/08/26 13:01:53;;;;;;;7.22;3.30;;;;;;;;;;5069651;28;20520;-89
2023/08/26 13:04:19;;;;;;;11.55;4.03;;;;;;;;;;5057698;28;20028;-88
2023/08/26 13:06:45;;;;;;;8.98;4.30;;;;;;;;;;5060940;28;20028;-87
2023/08/26 13:09:11;;;;;;;5.25;3.20;;;;;;;;;;5062342;28;20100;-88
2023/08/26 13:11:37;;;;;;;11.23;3.80;;;;;;;;;;5057237;28;20051;-88
2023/08/26 13:14:03;;;;;;;5.95;4.18;;;;;;;;;;5063967;28;20055;-89
2023/08/26 13:16:29;;;;;;;7.38;3.67;;;;;;;;;;5058968;28;20056;-88
2023/08/26 13:18:55;;;;;;;8.48;4.05;;;;;;;;;;5058571;28;20020;-91
2023/08/26 13:21:21;;;;;;;10.93;3.88;;;;;;;;;;5060932;28;20094;-91
2023/08/26 13:23:47;;;;;;;10.38;3.92;;;;;;;;;;5065398;28;20025;-92
2023/08/26 13:26:13;;;;;;;9.77;4.25;;;;;;;;;;5067747;28;20028;-93
2023/08/26 13:28:39;;;;;;;15.15;5.05;;;;;;;;;;5060638;28;20025;-91
2023/08/26 13:31:05;;;;;;;10.90;5.72;;;;;;;;;;5065349;28;20136;-95
2023/08/26 13:33:31;;;;;;;12.20;6.07;;;;;;;;;;5064577;28;20063;-93
2023/08/26 13:35:57;;;;;;;7.18;4.50;;;;;;;;;;5062076;28;20082;-92
2023/08/26 13:38:23;;;;;;;7.65;3.90;;;;;;;;;;5060914;28;20061;-93
2023/08/26 13:40:49;;;;;;;12.85;4.50;;;;;;;;;;5061248;28;20040;-94
2023/08/26 13:43:15;;;;;;;11.43;4.60;;;;;;;;;;5048487;28;20025;-93
2023/08/26 13:45:41;;;;;;;12.60;5.32;;;;;;;;;;5047484;28;20031;-96
2023/08/26 13:48:07;;;;;;;14.95;5.90;;;;;;;;;;5047758;28;20119;-93
2023/08/26 13:50:33;;;;;;;10.50;5.57;;;;;;;;;;5048716;28;20490;-96
2023/08/26 13:52:59;;;;;;;10.02;5.30;;;;;;;;;;5055141;28;20425;-92
2023/08/26 13:55:25;;;;;;;14.88;4.43;;;;;;;;;;5059197;28;20029;-92
2023/08/26 13:57:51;;;;;;;8.30;4.90;;;;;;;;;;5063829;28;20033;-92
2023/08/26 14:00:17;;;;;;;16.05;4.75;;;;;;;;;;5058083;28;20025;-93
2023/08/26 14:02:43;;;;;;;6.63;4.00;;;;;;;;;;5056301;28;20030;-94
2023/08/26 14:05:11;;;;;;;6.03;3.28;;;;;;;;;;5054711;28;20026;-93
2023/08/26 14:07:38;;;;;;;7.88;3.38;;;;;;;;;;5062195;28;20033;-95
2023/08/26 14:10:04;;;;;;;6.63;3.83;;;;;;;;;;5045742;28;20104;-92
2023/08/26 14:12:30;;;;;;;8.38;3.40;;;;;;;;;;5043192;28;20033;-92
2023/08/26 14:14:56;;;;;;;8.57;3.85;;;;;;;;;;5052154;28;20546;-89
2023/08/26 14:17:22;;;;;;;9.13;3.88;;;;;;;;;;5049947;28;20071;-89
2023/08/26 14:19:48;;;;;;;8.52;3.92;;;;;;;;;;5046914;28;20409;-88
2023/08/26 14:22:14;;;;;;;12.55;4.32;;;;;;;;;;5047033;28;20453;-87
2023/08/26 14:24:43;;;;;;;7.43;3.90;;;;;;;;;;5045792;28;20112;-86
2023/08/26 14:27:11;;;;;;;12.77;4.80;;;;;;;;;;5049035;28;20017;-87
2023/08/26 14:29:37;;;;;;;7.80;4.57;;;;;;;;;;5049059;28;20522;-86
2023/08/26 14:32:03;;;;;;;16.90;4.70;;;;;;;;;;5051731;28;20036;-90
2023/08/26 14:34:29;;;;;;;9.23;4.40;;;;;;;;;;5043926;28;20036;-88
2023/08/26 14:36:55;;;;;;;8.65;4.07;;;;;;;;;;5052586;28;20032;-89
2023/08/26 14:39:21;;;;;;;12.10;4.13;;;;;;;;;;5043817;28;20032;-88
2023/08/26 14:41:47;;;;;;;7.55;4.65;;;;;;;;;;5046494;28;20053;-89
2023/08/26 14:44:13;;;;;;;8.02;4.07;;;;;;;;;;5048636;28;20389;-89
2023/08/26 14:46:39;;;;;;;8.60;3.40;;;;;;;;;;5050766;28;20026;-90
2023/08/26 14:49:06;;;;;;;9.40;4.72;;;;;;;;;;5052940;28;20017;-91
2023/08/26 14:51:32;;;;;;;8.20;4.13;;;;;;;;;;5049473;28;20037;-91
2023/08/26 14:53:58;;;;;;;9.32;3.80;;;;;;;;;;5042634;28;20031;-90
2023/08/26 14:56:24;;;;;;;8.48;3.67;;;;;;;;;;5048235;28;20108;-91
2023/08/26 14:58:50;;;;;;;9.40;4.75;;;;;;;;;;5047137;28;20108;-90
2023/08/26 15:01:16;;;;;;;7.65;3.78;;;;;;;;;;5051658;28;20021;-90
2023/08/26 15:03:42;;;;;;;12.82;3.88;;;;;;;;;;5048089;28;20039;-87
2023/08/26 15:06:08;;;;;;;8.50;3.20;;;;;;;;;;5051005;28;20028;-88
2023/08/26 15:08:38;;;;;;;7.70;3.30;;;;;;;;;;5043294;28;20029;-87
2023/08/26 15:11:04;;;;;;;7.43;3.47;;;;;;;;;;5047553;28;20036;-87
2023/08/26 15:13:30;;;;;;;7.70;3.60;;;;;;;;;;5046410;28;20420;-86
2023/08/26 15:15:56;;;;;;;7.68;3.80;;;;;;;;;;5043269;28;20053;-88
2023/08/26 15:18:22;;;;;;;7.03;4.13;;;;;;;;;;5043601;28;20021;-87
2023/08/26 15:20:49;;;;;;;8.43;4.25;;;;;;;;;;5049663;28;20021;-88
2023/08/26 15:23:15;;;;;;;14.25;4.20;;;;;;;;;;5046161;28;20017;-89
2023/08/26 15:25:43;;;;;;;5.30;3.90;;;;;;;;;;5044982;28;20021;-88
2023/08/26 15:28:10;;;;;;;7.63;3.78;;;;;;;;;;5044281;28;20453;-87
2023/08/26 15:30:36;;;;;;;7.38;3.88;;;;;;;;;;5046868;28;20034;-88
2023/08/26 15:33:02;;;;;;;4.68;3.78;;;;;;;;;;5045114;28;20029;-88
2023/08/26 15:35:28;;;;;;;7.72;4.00;;;;;;;;;;5042330;28;20025;-89
2023/08/26 15:37:55;;;;;;;6.95;3.58;;;;;;;;;;5046073;28;20470;-89
2023/08/26 15:40:21;;;;;;;6.38;3.95;;;;;;;;;;5052395;28;20031;-88
2023/08/26 15:42:47;;;;;;;8.95;3.58;;;;;;;;;;5044214;28;20024;-89
2023/08/26 15:45:13;;;;;;;11.82;3.60;;;;;;;;;;5050681;28;20028;-88
2023/08/26 15:47:39;;;;;;;6.22;3.03;;;;;;;;;;5046304;28;20049;-89
2023/08/26 15:50:05;;;;;;;11.57;3.40;;;;;;;;;;5044552;28;20482;-91
2023/08/26 15:52:32;;;;;;;7.50;3.30;;;;;;;;;;5047816;28;20504;-90
2023/08/26 15:54:58;;;;;;;7.95;3.35;;;;;;;;;;5047854;28;20036;-93
2023/08/26 15:57:24;;;;;;;6.65;3.15;;;;;;;;;;5049697;28;20104;-93
2023/08/26 15:59:50;;;;;;;7.57;3.35;;;;;;;;;;5044644;28;20026;-92
2023/08/26 16:02:16;;;;;;;11.45;3.38;;;;;;;;;;5046416;28;20199;-90
2023/08/26 16:04:43;;;;;;;5.95;2.65;;;;;;;;;;5042395;28;20037;-92
2023/08/26 16:07:10;;;;;;;3.53;2.50;;;;;;;;;;5047981;28;20389;-91
2023/08/26 16:09:35;;;;;;;12.55;2.70;;;;;;;;;;5043003;28;20045;-89
2023/08/26 16:12:03;;;;;;;3.33;2.55;;;;;;;;;;5045519;28;20477;-92
2023/08/26 16:14:29;;;;;;;5.68;2.67;;;;;;;;;;5048784;28;20025;-90
2023/08/26 16:16:55;;;;;;;3.45;2.30;;;;;;;;;;5043002;28;20371;-90
2023/08/26 16:19:21;;;;;;;3.53;2.10;;;;;;;;;;5043395;28;20032;-93
2023/08/26 16:21:47;;;;;;;4.45;2.72;;;;;;;;;;5044834;28;20017;-94
2023/08/26 16:24:13;;;;;;;4.20;2.45;;;;;;;;;;5045468;28;20025;-92
2023/08/26 16:26:39;;;;;;;3.05;2.40;;;;;;;;;;5050767;28;20064;-92
2023/08/26 16:29:05;;;;;;;4.45;2.20;;;;;;;;;;5050520;28;20085;-93
2023/08/26 16:31:31;;;;;;;8.77;2.13;;;;;;;;;;5044812;28;20033;-93
2023/08/26 16:33:57;;;;;;;3.40;2.10;;;;;;;;;;5043292;28;20155;-93
2023/08/26 16:36:29;;;;;;;4.80;2.33;;;;;;;;;;5044479;28;20025;-93
2023/08/26 16:38:55;;;;;;;6.88;2.53;;;;;;;;;;5043515;28;20466;-92
2023/08/26 16:41:21;;;;;;;4.72;2.03;;;;;;;;;;5047252;28;20067;-93
2023/08/26 16:43:47;;;;;;;2.38;2.10;;;;;;;;;;5051331;28;20075;-94
2023/08/26 16:46:13;;;;;;;7.88;2.17;;;;;;;;;;5047219;28;20028;-95
2023/08/26 16:48:39;;;;;;;3.42;2.40;;;;;;;;;;5045803;28;20029;-95
2023/08/26 16:51:05;;;;;;;3.20;2.10;;;;;;;;;;5042801;28;20031;-93
2023/08/26 16:53:34;;;;;;;6.35;2.55;;;;;;;;;;5046776;28;20036;-93
2023/08/26 16:56:00;;;;;;;3.95;2.40;;;;;;;;;;5044472;28;20013;-94
2023/08/26 16:58:26;;;;;;;6.00;2.20;;;;;;;;;;5052108;28;20017;-93
2023/08/26 17:00:52;;;;;;;3.80;2.30;;;;;;;;;;5054105;28;20148;-93
2023/08/26 17:03:24;;;;;;;3.45;2.28;;;;;;;;;;5058160;28;20390;-93
2023/08/26 17:05:50;;;;;;;3.85;2.60;;;;;;;;;;5043831;28;20028;-93
2023/08/26 17:08:17;;;;;;;8.25;1.75;;;;;;;;;;5044339;28;20036;-92
2023/08/26 17:10:43;;;;;;;3.33;2.28;;;;;;;;;;5043014;28;20120;-92
2023/08/26 17:13:09;;;;;;;3.00;1.90;;;;;;;;;;5055013;28;20140;-94
2023/08/26 17:15:35;;;;;;;3.17;1.95;;;;;;;;;;5051504;28;20027;-93
2023/08/26 17:18:01;;;;;;;3.63;2.00;;;;;;;;;;5046032;28;20478;-92
2023/08/26 17:20:27;;;;;;;4.13;2.28;;;;;;;;;;5056766;28;20017;-93
2023/08/26 17:22:53;;;;;;;2.45;2.15;;;;;;;;;;5053954;28;20052;-95
2023/08/26 17:25:24;;;;;;;10.85;2.20;;;;;;;;;;5052327;28;20032;-93
2023/08/26 17:27:50;;;;;;;2.28;1.85;;;;;;;;;;5055019;28;20029;-92
2023/08/26 17:30:19;;;;;;;7.32;2.00;;;;;;;;;;5066778;28;20029;-92
2023/08/26 17:32:57;;;;;;;2.58;2.10;;;;;;;;;;5058687;28;20037;-91
2023/08/26 18:47:17;;;;;;;6.00;2.42;;;;;;;;;;4897292;29;20104;-93
2023/08/26 18:53:08;;;;;;;7.68;2.67;;;;;;;;;;4892093;29;20039;-93
2023/08/26 18:55:37;;;;;;;7.75;2.13;;;;;;;;;;4872022;29;20088;-94
2023/08/26 18:58:11;;;;;;;6.82;1.83;;;;;;;;;;4912975;28;20043;-94
2023/08/26 19:00:40;;;;;;;4.35;2.42;;;;;;;;;;4968858;28;20122;-94
2023/08/26 19:03:09;;;;;;;3.22;2.28;;;;;;;;;;4960792;28;20113;-93
2023/08/26 19:05:36;;;;;;;2.63;1.83;;;;;;;;;;4946943;28;20035;-94
2023/08/26 19:08:05;;;;;;;3.05;2.10;;;;;;;;;;4940685;28;20111;-93
2023/08/26 19:10:33;;;;;;;5.10;2.38;;;;;;;;;;4946835;28;20684;-93
2023/08/26 19:13:02;;;;;;;6.80;2.10;;;;;;;;;;4963541;28;20026;-92
2023/08/26 19:15:28;;;;;;;3.85;2.15;;;;;;;;;;5048714;28;20014;-93
2023/08/26 19:17:57;;;;;;;5.05;2.10;;;;;;;;;;5049590;28;20103;-95
2023/08/26 19:20:23;;;;;;;5.10;2.38;;;;;;;;;;5035778;28;20025;-96
2023/08/26 19:22:49;;;;;;;7.43;2.85;;;;;;;;;;5071051;28;20039;-95
2023/08/26 19:25:24;;;;;;;3.90;2.45;;;;;;;;;;5070113;28;20048;-95
2023/08/26 19:27:51;;;;;;;11.02;2.40;;;;;;;;;;5071600;28;20028;-93
2023/08/26 19:30:17;;;;;;;7.03;2.40;;;;;;;;;;5072059;28;20641;-92